createdAt,value
2024-01-31T00:01:09.261Z,9.31
2024-01-31T00:06:56.350Z,9.41
2024-01-31T00:12:48.198Z,9.39
2024-01-31T00:18:38.163Z,9.33
2024-01-31T00:25:03.999Z,9.27
2024-01-31T00:31:00.286Z,9.27
2024-01-31T00:36:47.136Z,9.31
2024-01-31T00:42:34.107Z,9.30
2024-01-31T00:48:21.066Z,9.30
2024-01-31T00:54:08.818Z,9.19
2024-01-31T00:59:56.314Z,9.08
2024-01-31T01:05:43.175Z,9.10
2024-01-31T01:11:41.143Z,9.16
2024-01-31T01:17:27.957Z,9.15
2024-01-31T01:23:16.415Z,9.01
2024-01-31T01:29:04.213Z,8.97
2024-01-31T01:34:53.302Z,8.92
2024-01-31T01:40:46.037Z,8.95
2024-01-31T01:46:37.263Z,8.88
2024-01-31T01:52:35.425Z,8.91
2024-01-31T01:58:25.838Z,8.88
2024-01-31T02:04:14.113Z,8.84
2024-01-31T02:10:02.174Z,8.77
2024-01-31T02:15:57.856Z,8.83
2024-01-31T02:21:45.171Z,8.83
2024-01-31T02:27:35.329Z,8.89
2024-01-31T02:33:29.698Z,8.89
2024-01-31T02:39:16.587Z,8.85
2024-01-31T02:45:03.726Z,8.81
2024-01-31T02:50:50.466Z,8.57
2024-01-31T02:56:43.039Z,8.80
2024-01-31T03:02:29.897Z,8.84
2024-01-31T03:08:16.621Z,8.76
2024-01-31T03:14:06.195Z,8.71
2024-01-31T03:19:53.299Z,8.77
2024-01-31T03:25:40.279Z,8.66
2024-01-31T03:31:27.258Z,8.59
2024-01-31T03:37:14.730Z,8.54
2024-01-31T03:43:05.771Z,8.58
2024-01-31T03:48:55.035Z,8.66
2024-01-31T03:54:45.173Z,8.48
2024-01-31T04:00:32.128Z,8.53
2024-01-31T04:06:18.992Z,8.59
2024-01-31T04:12:06.346Z,8.46
2024-01-31T04:17:53.417Z,8.49
2024-01-31T04:23:40.167Z,8.43
2024-01-31T04:29:27.117Z,8.36
2024-01-31T04:35:13.973Z,8.41
2024-01-31T04:41:01.437Z,8.36
2024-01-31T04:46:48.665Z,8.34
2024-01-31T04:52:35.986Z,8.30
2024-01-31T04:58:23.019Z,8.16
2024-01-31T05:04:10.042Z,8.25
2024-01-31T05:09:56.752Z,8.11
2024-01-31T05:15:43.412Z,8.31
2024-01-31T05:21:30.279Z,8.13
2024-01-31T05:27:17.251Z,8.29
2024-01-31T05:33:04.412Z,8.21
2024-01-31T05:38:52.823Z,8.36
2024-01-31T05:44:39.718Z,8.32
2024-01-31T05:50:26.510Z,8.30
2024-01-31T05:56:17.129Z,8.21
2024-01-31T06:02:03.974Z,8.20
2024-01-31T06:07:50.694Z,8.32
2024-01-31T06:13:37.753Z,8.35
2024-01-31T06:19:24.876Z,8.18
2024-01-31T06:25:15.186Z,8.12
2024-01-31T06:31:29.906Z,8.15
2024-01-31T06:37:18.541Z,8.23
2024-01-31T06:43:05.828Z,8.16
2024-01-31T06:48:53.073Z,8.19
2024-01-31T06:54:41.085Z,8.15
2024-01-31T07:00:29.400Z,8.29
2024-01-31T07:06:30.352Z,8.08
2024-01-31T07:12:17.398Z,8.19
2024-01-31T07:18:04.777Z,8.17
2024-01-31T07:23:53.253Z,8.32
2024-01-31T07:29:40.094Z,8.36
2024-01-31T07:35:27.292Z,8.23
2024-01-31T07:41:15.162Z,8.00
2024-01-31T07:47:05.182Z,8.12
2024-01-31T07:52:52.006Z,8.28
2024-01-31T07:58:40.569Z,8.17
2024-01-31T08:04:27.682Z,8.23
2024-01-31T08:10:17.708Z,8.25
2024-01-31T08:16:04.895Z,8.36
2024-01-31T08:21:51.962Z,8.37
2024-01-31T08:27:38.827Z,8.31
2024-01-31T08:33:28.779Z,8.29
2024-01-31T08:39:15.655Z,8.35
2024-01-31T08:45:02.690Z,8.42
2024-01-31T08:50:52.558Z,8.45
2024-01-31T08:56:39.350Z,8.50
2024-01-31T09:02:26.526Z,8.53
2024-01-31T09:08:13.438Z,8.58
2024-01-31T09:14:01.782Z,8.70
2024-01-31T09:19:51.434Z,8.56
2024-01-31T09:25:38.489Z,8.77
2024-01-31T09:31:28.767Z,8.75
2024-01-31T09:37:15.892Z,8.83
2024-01-31T09:43:04.172Z,8.62
2024-01-31T09:48:51.432Z,8.76
2024-01-31T09:54:40.198Z,8.83
2024-01-31T10:00:27.992Z,8.75
2024-01-31T10:06:15.083Z,8.85
2024-01-31T10:12:02.302Z,9.05
2024-01-31T10:17:49.673Z,8.97
2024-01-31T10:23:37.343Z,9.05
2024-01-31T10:29:24.901Z,9.05
2024-01-31T10:35:26.923Z,9.03
2024-01-31T10:41:23.891Z,9.29
2024-01-31T10:47:11.077Z,9.23
2024-01-31T10:52:59.554Z,9.39
2024-01-31T10:58:48.010Z,9.40
2024-01-31T11:04:40.258Z,9.24
2024-01-31T11:10:29.282Z,9.15
2024-01-31T11:16:25.905Z,9.18
2024-01-31T11:22:13.376Z,9.35
2024-01-31T11:28:01.096Z,9.60
2024-01-31T11:33:48.301Z,9.35
2024-01-31T11:39:35.706Z,9.50
2024-01-31T11:45:26.230Z,9.66
2024-01-31T11:51:13.368Z,9.39
2024-01-31T11:57:00.384Z,9.58
2024-01-31T12:02:51.087Z,9.49
2024-01-31T12:08:43.519Z,9.93
2024-01-31T12:14:30.552Z,10.13
2024-01-31T12:20:17.930Z,10.09
2024-01-31T12:26:05.228Z,10.00
2024-01-31T12:31:52.276Z,10.06
2024-01-31T12:37:40.651Z,10.13
2024-01-31T12:43:27.533Z,10.19
2024-01-31T12:49:15.106Z,10.31
2024-01-31T12:55:02.138Z,10.43
2024-01-31T13:00:49.002Z,10.48
2024-01-31T13:06:36.244Z,10.43
2024-01-31T13:12:23.477Z,10.39
2024-01-31T13:18:12.128Z,10.55
2024-01-31T13:24:01.433Z,10.50
2024-01-31T13:29:48.523Z,10.79
2024-01-31T13:35:38.164Z,10.77
2024-01-31T13:41:25.369Z,10.74
2024-01-31T13:47:12.314Z,10.82
2024-01-31T13:52:59.279Z,11.04
2024-01-31T13:58:46.107Z,10.99
2024-01-31T14:04:38.214Z,11.09
2024-01-31T14:10:25.183Z,10.82
2024-01-31T14:16:16.170Z,10.69
2024-01-31T14:22:12.840Z,10.79
2024-01-31T14:28:07.324Z,10.77
2024-01-31T14:33:56.486Z,10.88
2024-01-31T14:39:43.405Z,10.82
2024-01-31T14:45:30.426Z,10.80
2024-01-31T14:51:17.271Z,10.67
2024-01-31T14:57:11.710Z,10.70
2024-01-31T15:03:04.241Z,10.72
2024-01-31T15:08:51.596Z,10.73
2024-01-31T15:14:52.419Z,10.69
2024-01-31T15:20:39.728Z,10.64
2024-01-31T15:26:26.894Z,10.53
2024-01-31T15:32:15.655Z,10.68
2024-01-31T15:38:18.266Z,10.72
2024-01-31T15:44:23.764Z,10.53
2024-01-31T15:50:11.056Z,10.74
2024-01-31T15:56:00.740Z,10.54
2024-01-31T16:01:50.707Z,10.67
2024-01-31T16:07:49.752Z,10.68
2024-01-31T16:13:42.015Z,10.59
2024-01-31T16:19:32.498Z,10.55
2024-01-31T16:25:20.011Z,10.45
2024-01-31T16:31:06.910Z,10.37
2024-01-31T16:36:55.864Z,10.34
2024-01-31T16:43:00.665Z,10.38
2024-01-31T16:48:58.003Z,10.39
2024-01-31T16:55:31.721Z,10.45
2024-01-31T17:00:57.309Z,10.44
2024-01-31T17:06:44.783Z,10.51
2024-01-31T17:12:32.531Z,10.53
2024-01-31T17:18:21.841Z,10.63
2024-01-31T17:24:10.546Z,10.71
2024-01-31T17:29:58.577Z,10.81
2024-01-31T17:35:45.772Z,10.81
2024-01-31T17:41:32.574Z,10.86
2024-01-31T17:47:20.535Z,10.97
2024-01-31T17:53:07.366Z,11.05
2024-01-31T17:58:54.315Z,11.07
2024-01-31T18:04:41.433Z,11.12
2024-01-31T18:10:28.259Z,11.30
2024-01-31T18:16:17.906Z,11.30
2024-01-31T18:22:04.968Z,11.46
2024-01-31T18:27:52.918Z,11.73
2024-01-31T18:34:18.890Z,11.66
2024-01-31T18:40:07.702Z,11.77
2024-01-31T18:45:54.666Z,11.71
2024-01-31T18:51:41.650Z,11.61
2024-01-31T18:57:31.949Z,11.76
2024-01-31T19:03:18.847Z,11.73
2024-01-31T19:09:05.876Z,11.83
2024-01-31T19:14:53.185Z,11.92
2024-01-31T19:20:40.169Z,12.01
2024-01-31T19:26:37.177Z,12.08
2024-01-31T19:32:26.975Z,12.14
2024-01-31T19:38:15.782Z,12.22
2024-01-31T19:44:05.190Z,12.15
2024-01-31T19:49:53.765Z,12.26
2024-01-31T19:55:43.215Z,12.34
2024-01-31T20:01:34.637Z,12.44
2024-01-31T20:08:30.868Z,12.40
2024-01-31T20:14:18.078Z,12.39
2024-01-31T20:20:13.347Z,12.36
2024-01-31T20:26:00.843Z,12.52
2024-01-31T20:31:50.010Z,12.64
2024-01-31T20:38:15.481Z,12.53
2024-01-31T20:44:42.191Z,12.72
2024-01-31T20:50:34.134Z,12.63
2024-01-31T20:56:27.926Z,12.64
2024-01-31T21:02:15.997Z,12.54
2024-01-31T21:08:03.990Z,12.55
2024-01-31T21:13:50.871Z,12.41
2024-01-31T21:19:38.951Z,12.48
2024-01-31T21:25:26.648Z,12.18
2024-01-31T21:31:13.465Z,12.20
2024-01-31T21:37:06.557Z,12.39
2024-01-31T21:43:00.397Z,12.30
2024-01-31T21:49:54.586Z,12.21
2024-01-31T21:55:45.474Z,12.28
2024-01-31T22:01:35.033Z,12.17
2024-01-31T22:07:31.859Z,12.30
2024-01-31T22:13:18.700Z,12.22
2024-01-31T22:19:05.491Z,12.32
2024-01-31T22:31:01.471Z,12.34
2024-01-31T22:36:49.010Z,12.17
2024-01-31T22:42:54.394Z,11.94
2024-01-31T22:49:18.102Z,12.05
2024-01-31T22:55:25.476Z,12.02
2024-01-31T23:01:13.977Z,12.05
2024-01-31T23:14:30.081Z,11.96
2024-01-31T23:20:40.468Z,12.05
2024-01-31T23:26:36.692Z,12.28
2024-01-31T23:32:28.829Z,12.16
2024-01-31T23:38:20.295Z,12.17
2024-01-31T23:44:07.292Z,12.10
2024-01-31T23:49:55.699Z,12.16
2024-01-31T23:55:45.134Z,12.06
